sensor_id;sensor_type;location;lat;lon;timestamp;P1;durP1;ratioP1;P2;durP2;ratioP2
25559;SDS011;13450;49.374;8.584;2024-02-15T00:02:13;8.35;;;2.40;;
25559;SDS011;13450;49.374;8.584;2024-02-15T00:04:39;7.00;;;2.60;;
25559;SDS011;13450;49.374;8.584;2024-02-15T00:07:07;6.72;;;2.95;;
25559;SDS011;13450;49.374;8.584;2024-02-15T00:09:33;10.23;;;3.22;;
25559;SDS011;13450;49.374;8.584;2024-02-15T00:11:58;6.30;;;2.63;;
25559;SDS011;13450;49.374;8.584;2024-02-15T00:14:24;7.40;;;3.25;;
25559;SDS011;13450;49.374;8.584;2024-02-15T00:16:50;7.03;;;3.30;;
25559;SDS011;13450;49.374;8.584;2024-02-15T00:19:15;7.13;;;3.25;;
25559;SDS011;13450;49.374;8.584;2024-02-15T00:21:42;7.30;;;2.90;;
25559;SDS011;13450;49.374;8.584;2024-02-15T00:24:08;7.35;;;3.40;;
25559;SDS011;13450;49.374;8.584;2024-02-15T00:26:35;6.15;;;2.80;;
25559;SDS011;13450;49.374;8.584;2024-02-15T00:29:01;6.88;;;2.78;;
25559;SDS011;13450;49.374;8.584;2024-02-15T00:31:26;4.88;;;2.70;;
25559;SDS011;13450;49.374;8.584;2024-02-15T00:33:51;4.35;;;1.90;;
25559;SDS011;13450;49.374;8.584;2024-02-15T00:36:17;4.25;;;1.80;;
25559;SDS011;13450;49.374;8.584;2024-02-15T00:38:42;6.97;;;2.65;;
25559;SDS011;13450;49.374;8.584;2024-02-15T00:41:08;6.45;;;2.70;;
25559;SDS011;13450;49.374;8.584;2024-02-15T00:43:36;15.60;;;4.30;;
25559;SDS011;13450;49.374;8.584;2024-02-15T00:46:02;9.50;;;3.75;;
25559;SDS011;13450;49.374;8.584;2024-02-15T00:48:28;6.20;;;2.97;;
25559;SDS011;13450;49.374;8.584;2024-02-15T00:50:54;9.25;;;3.63;;
25559;SDS011;13450;49.374;8.584;2024-02-15T00:53:20;8.50;;;2.97;;
25559;SDS011;13450;49.374;8.584;2024-02-15T00:55:46;11.60;;;4.13;;
25559;SDS011;13450;49.374;8.584;2024-02-15T00:58:11;9.85;;;3.30;;
25559;SDS011;13450;49.374;8.584;2024-02-15T01:00:37;7.82;;;3.08;;
25559;SDS011;13450;49.374;8.584;2024-02-15T01:03:03;8.15;;;2.75;;
25559;SDS011;13450;49.374;8.584;2024-02-15T01:05:28;6.15;;;2.60;;
25559;SDS011;13450;49.374;8.584;2024-02-15T01:07:55;9.18;;;3.28;;
25559;SDS011;13450;49.374;8.584;2024-02-15T01:10:21;6.85;;;2.40;;
25559;SDS011;13450;49.374;8.584;2024-02-15T01:12:49;6.05;;;2.60;;
25559;SDS011;13450;49.374;8.584;2024-02-15T01:15:15;8.30;;;3.20;;
25559;SDS011;13450;49.374;8.584;2024-02-15T01:17:43;5.80;;;2.65;;
25559;SDS011;13450;49.374;8.584;2024-02-15T01:20:09;5.90;;;2.22;;
25559;SDS011;13450;49.374;8.584;2024-02-15T01:22:36;4.50;;;2.22;;
25559;SDS011;13450;49.374;8.584;2024-02-15T01:25:02;5.43;;;2.20;;
25559;SDS011;13450;49.374;8.584;2024-02-15T01:27:29;5.70;;;2.10;;
25559;SDS011;13450;49.374;8.584;2024-02-15T01:29:58;7.00;;;2.40;;
25559;SDS011;13450;49.374;8.584;2024-02-15T01:32:23;4.10;;;1.70;;
25559;SDS011;13450;49.374;8.584;2024-02-15T01:34:50;4.20;;;2.00;;
25559;SDS011;13450;49.374;8.584;2024-02-15T01:37:16;5.90;;;2.45;;
25559;SDS011;13450;49.374;8.584;2024-02-15T01:39:41;3.20;;;1.42;;
25559;SDS011;13450;49.374;8.584;2024-02-15T01:42:07;3.65;;;1.70;;
25559;SDS011;13450;49.374;8.584;2024-02-15T01:44:39;3.97;;;2.08;;
25559;SDS011;13450;49.374;8.584;2024-02-15T01:47:05;3.90;;;2.13;;
25559;SDS011;13450;49.374;8.584;2024-02-15T01:49:30;5.82;;;2.70;;
25559;SDS011;13450;49.374;8.584;2024-02-15T01:51:57;4.60;;;2.50;;
25559;SDS011;13450;49.374;8.584;2024-02-15T01:54:25;4.67;;;1.97;;
25559;SDS011;13450;49.374;8.584;2024-02-15T01:56:52;3.40;;;1.50;;
25559;SDS011;13450;49.374;8.584;2024-02-15T01:59:19;4.03;;;1.52;;
25559;SDS011;13450;49.374;8.584;2024-02-15T02:01:47;3.55;;;1.55;;
25559;SDS011;13450;49.374;8.584;2024-02-15T02:04:13;2.67;;;1.17;;
25559;SDS011;13450;49.374;8.584;2024-02-15T02:06:39;4.13;;;1.50;;
25559;SDS011;13450;49.374;8.584;2024-02-15T02:09:04;4.13;;;1.70;;
25559;SDS011;13450;49.374;8.584;2024-02-15T02:11:29;3.38;;;1.55;;
25559;SDS011;13450;49.374;8.584;2024-02-15T02:13:55;2.33;;;1.33;;
25559;SDS011;13450;49.374;8.584;2024-02-15T02:16:24;5.63;;;2.72;;
25559;SDS011;13450;49.374;8.584;2024-02-15T02:18:57;4.75;;;2.42;;
25559;SDS011;13450;49.374;8.584;2024-02-15T02:21:23;6.10;;;2.38;;
25559;SDS011;13450;49.374;8.584;2024-02-15T02:23:52;6.22;;;2.38;;
25559;SDS011;13450;49.374;8.584;2024-02-15T02:26:20;6.17;;;2.20;;
25559;SDS011;13450;49.374;8.584;2024-02-15T02:28:49;4.95;;;2.20;;
25559;SDS011;13450;49.374;8.584;2024-02-15T02:31:15;4.65;;;2.15;;
25559;SDS011;13450;49.374;8.584;2024-02-15T02:33:47;5.63;;;2.35;;
25559;SDS011;13450;49.374;8.584;2024-02-15T02:36:17;4.72;;;1.95;;
25559;SDS011;13450;49.374;8.584;2024-02-15T02:38:45;4.23;;;2.00;;
25559;SDS011;13450;49.374;8.584;2024-02-15T02:41:11;3.92;;;1.90;;
25559;SDS011;13450;49.374;8.584;2024-02-15T02:43:40;5.07;;;2.15;;
25559;SDS011;13450;49.374;8.584;2024-02-15T02:46:05;4.47;;;1.85;;
25559;SDS011;13450;49.374;8.584;2024-02-15T02:48:31;5.75;;;2.10;;
25559;SDS011;13450;49.374;8.584;2024-02-15T02:50:57;4.60;;;2.10;;
25559;SDS011;13450;49.374;8.584;2024-02-15T02:53:22;4.70;;;2.13;;
25559;SDS011;13450;49.374;8.584;2024-02-15T02:55:48;5.30;;;1.95;;
25559;SDS011;13450;49.374;8.584;2024-02-15T02:58:14;7.28;;;2.20;;
25559;SDS011;13450;49.374;8.584;2024-02-15T03:00:39;4.22;;;2.05;;
25559;SDS011;13450;49.374;8.584;2024-02-15T03:03:05;4.20;;;2.22;;
25559;SDS011;13450;49.374;8.584;2024-02-15T03:05:30;4.40;;;1.83;;
25559;SDS011;13450;49.374;8.584;2024-02-15T03:07:56;4.15;;;1.40;;
25559;SDS011;13450;49.374;8.584;2024-02-15T03:10:21;5.40;;;2.13;;
25559;SDS011;13450;49.374;8.584;2024-02-15T03:12:48;4.38;;;2.00;;
25559;SDS011;13450;49.374;8.584;2024-02-15T03:15:14;5.88;;;1.88;;
25559;SDS011;13450;49.374;8.584;2024-02-15T03:17:43;4.15;;;1.80;;
25559;SDS011;13450;49.374;8.584;2024-02-15T03:20:11;5.13;;;2.20;;
25559;SDS011;13450;49.374;8.584;2024-02-15T03:25:23;3.72;;;1.70;;
25559;SDS011;13450;49.374;8.584;2024-02-15T03:27:49;4.45;;;1.90;;
25559;SDS011;13450;49.374;8.584;2024-02-15T03:30:17;4.30;;;1.90;;
25559;SDS011;13450;49.374;8.584;2024-02-15T03:32:44;6.90;;;2.28;;
25559;SDS011;13450;49.374;8.584;2024-02-15T03:35:10;5.40;;;2.25;;
25559;SDS011;13450;49.374;8.584;2024-02-15T03:37:39;4.10;;;2.00;;
25559;SDS011;13450;49.374;8.584;2024-02-15T03:40:05;6.28;;;2.10;;
25559;SDS011;13450;49.374;8.584;2024-02-15T03:42:31;5.47;;;2.33;;
25559;SDS011;13450;49.374;8.584;2024-02-15T03:44:56;5.43;;;2.20;;
25559;SDS011;13450;49.374;8.584;2024-02-15T03:47:21;2.97;;;1.40;;
25559;SDS011;13450;49.374;8.584;2024-02-15T03:49:47;8.02;;;2.53;;
25559;SDS011;13450;49.374;8.584;2024-02-15T03:52:12;4.55;;;1.90;;
25559;SDS011;13450;49.374;8.584;2024-02-15T03:54:37;6.03;;;2.30;;
25559;SDS011;13450;49.374;8.584;2024-02-15T03:57:03;5.35;;;2.40;;
25559;SDS011;13450;49.374;8.584;2024-02-15T03:59:28;6.97;;;2.13;;
25559;SDS011;13450;49.374;8.584;2024-02-15T04:01:54;3.50;;;1.63;;
25559;SDS011;13450;49.374;8.584;2024-02-15T04:04:20;2.20;;;1.05;;
25559;SDS011;13450;49.374;8.584;2024-02-15T04:06:51;5.85;;;2.40;;
25559;SDS011;13450;49.374;8.584;2024-02-15T04:09:17;3.85;;;1.83;;
25559;SDS011;13450;49.374;8.584;2024-02-15T04:11:46;3.65;;;1.85;;
25559;SDS011;13450;49.374;8.584;2024-02-15T04:14:15;3.72;;;1.65;;
25559;SDS011;13450;49.374;8.584;2024-02-15T04:16:43;2.92;;;1.40;;
25559;SDS011;13450;49.374;8.584;2024-02-15T04:19:09;4.60;;;1.60;;
25559;SDS011;13450;49.374;8.584;2024-02-15T04:21:35;3.50;;;1.48;;
25559;SDS011;13450;49.374;8.584;2024-02-15T04:24:01;3.70;;;1.45;;
25559;SDS011;13450;49.374;8.584;2024-02-15T04:26:30;5.18;;;1.80;;
25559;SDS011;13450;49.374;8.584;2024-02-15T04:28:58;6.00;;;2.08;;
25559;SDS011;13450;49.374;8.584;2024-02-15T04:31:24;3.38;;;1.60;;
25559;SDS011;13450;49.374;8.584;2024-02-15T04:33:53;4.23;;;2.00;;
25559;SDS011;13450;49.374;8.584;2024-02-15T04:36:19;3.67;;;1.50;;
25559;SDS011;13450;49.374;8.584;2024-02-15T04:41:15;3.38;;;1.70;;
25559;SDS011;13450;49.374;8.584;2024-02-15T04:43:45;3.88;;;1.90;;
25559;SDS011;13450;49.374;8.584;2024-02-15T04:46:15;5.55;;;2.08;;
25559;SDS011;13450;49.374;8.584;2024-02-15T04:48:41;4.43;;;2.00;;
25559;SDS011;13450;49.374;8.584;2024-02-15T04:51:07;5.28;;;1.83;;
25559;SDS011;13450;49.374;8.584;2024-02-15T04:53:33;5.18;;;1.77;;
25559;SDS011;13450;49.374;8.584;2024-02-15T04:55:59;4.97;;;1.77;;
25559;SDS011;13450;49.374;8.584;2024-02-15T05:00:54;4.93;;;1.60;;
25559;SDS011;13450;49.374;8.584;2024-02-15T05:03:23;5.00;;;1.98;;
25559;SDS011;13450;49.374;8.584;2024-02-15T05:05:51;4.10;;;1.60;;
25559;SDS011;13450;49.374;8.584;2024-02-15T05:08:17;5.55;;;2.15;;
25559;SDS011;13450;49.374;8.584;2024-02-15T05:10:42;5.63;;;2.10;;
25559;SDS011;13450;49.374;8.584;2024-02-15T05:13:07;6.68;;;2.28;;
25559;SDS011;13450;49.374;8.584;2024-02-15T05:15:33;5.35;;;2.28;;
25559;SDS011;13450;49.374;8.584;2024-02-15T05:18:00;6.18;;;1.85;;
25559;SDS011;13450;49.374;8.584;2024-02-15T05:20:26;5.43;;;2.15;;
25559;SDS011;13450;49.374;8.584;2024-02-15T05:22:52;6.55;;;2.38;;
25559;SDS011;13450;49.374;8.584;2024-02-15T05:25:19;3.78;;;1.77;;
25559;SDS011;13450;49.374;8.584;2024-02-15T05:27:49;4.60;;;1.70;;
25559;SDS011;13450;49.374;8.584;2024-02-15T05:30:15;6.03;;;2.20;;
25559;SDS011;13450;49.374;8.584;2024-02-15T05:32:40;4.43;;;1.58;;
25559;SDS011;13450;49.374;8.584;2024-02-15T05:35:12;3.75;;;1.33;;
25559;SDS011;13450;49.374;8.584;2024-02-15T05:37:38;4.43;;;2.10;;
25559;SDS011;13450;49.374;8.584;2024-02-15T05:40:04;2.25;;;1.20;;
25559;SDS011;13450;49.374;8.584;2024-02-15T05:42:30;2.30;;;0.88;;
25559;SDS011;13450;49.374;8.584;2024-02-15T05:45:14;5.70;;;2.10;;
25559;SDS011;13450;49.374;8.584;2024-02-15T05:47:57;8.35;;;2.17;;
25559;SDS011;13450;49.374;8.584;2024-02-15T05:50:23;4.40;;;1.77;;
25559;SDS011;13450;49.374;8.584;2024-02-15T05:52:49;6.78;;;2.05;;
25559;SDS011;13450;49.374;8.584;2024-02-15T05:55:17;4.03;;;1.87;;
25559;SDS011;13450;49.374;8.584;2024-02-15T05:57:44;3.88;;;1.80;;
25559;SDS011;13450;49.374;8.584;2024-02-15T06:00:10;4.38;;;1.77;;
25559;SDS011;13450;49.374;8.584;2024-02-15T06:02:36;4.18;;;1.80;;
25559;SDS011;13450;49.374;8.584;2024-02-15T06:05:01;4.85;;;1.95;;
25559;SDS011;13450;49.374;8.584;2024-02-15T06:07:31;3.47;;;1.42;;
25559;SDS011;13450;49.374;8.584;2024-02-15T06:10:00;4.47;;;2.00;;
25559;SDS011;13450;49.374;8.584;2024-02-15T06:12:29;4.43;;;1.60;;
25559;SDS011;13450;49.374;8.584;2024-02-15T06:14:55;4.57;;;1.77;;
25559;SDS011;13450;49.374;8.584;2024-02-15T06:17:20;7.00;;;3.03;;
25559;SDS011;13450;49.374;8.584;2024-02-15T06:19:46;6.95;;;2.60;;
25559;SDS011;13450;49.374;8.584;2024-02-15T06:22:11;5.15;;;2.05;;
25559;SDS011;13450;49.374;8.584;2024-02-15T06:24:37;4.68;;;1.75;;
25559;SDS011;13450;49.374;8.584;2024-02-15T06:27:02;4.38;;;1.73;;
25559;SDS011;13450;49.374;8.584;2024-02-15T06:29:28;5.57;;;2.15;;
25559;SDS011;13450;49.374;8.584;2024-02-15T06:32:12;5.60;;;1.98;;
25559;SDS011;13450;49.374;8.584;2024-02-15T06:34:59;6.15;;;2.38;;
25559;SDS011;13450;49.374;8.584;2024-02-15T06:37:45;5.22;;;1.88;;
25559;SDS011;13450;49.374;8.584;2024-02-15T06:40:29;4.82;;;2.08;;
25559;SDS011;13450;49.374;8.584;2024-02-15T06:42:55;5.35;;;1.88;;
25559;SDS011;13450;49.374;8.584;2024-02-15T06:45:23;4.47;;;1.80;;
25559;SDS011;13450;49.374;8.584;2024-02-15T06:47:49;4.90;;;1.80;;
25559;SDS011;13450;49.374;8.584;2024-02-15T06:50:17;6.28;;;2.03;;
25559;SDS011;13450;49.374;8.584;2024-02-15T06:52:42;3.83;;;1.75;;
25559;SDS011;13450;49.374;8.584;2024-02-15T06:55:08;5.05;;;2.30;;
25559;SDS011;13450;49.374;8.584;2024-02-15T06:57:34;6.60;;;2.42;;
25559;SDS011;13450;49.374;8.584;2024-02-15T07:00:03;9.60;;;6.45;;
25559;SDS011;13450;49.374;8.584;2024-02-15T07:05:00;5.72;;;2.53;;
25559;SDS011;13450;49.374;8.584;2024-02-15T07:07:26;5.65;;;2.28;;
25559;SDS011;13450;49.374;8.584;2024-02-15T07:09:51;6.40;;;2.53;;
25559;SDS011;13450;49.374;8.584;2024-02-15T07:12:19;5.43;;;2.45;;
25559;SDS011;13450;49.374;8.584;2024-02-15T07:14:46;7.15;;;2.92;;
25559;SDS011;13450;49.374;8.584;2024-02-15T07:17:12;5.45;;;2.40;;
25559;SDS011;13450;49.374;8.584;2024-02-15T07:19:37;4.03;;;1.65;;
25559;SDS011;13450;49.374;8.584;2024-02-15T07:22:04;4.10;;;1.80;;
25559;SDS011;13450;49.374;8.584;2024-02-15T07:24:30;3.70;;;1.70;;
25559;SDS011;13450;49.374;8.584;2024-02-15T07:26:55;4.05;;;1.80;;
25559;SDS011;13450;49.374;8.584;2024-02-15T07:29:21;4.72;;;1.50;;
25559;SDS011;13450;49.374;8.584;2024-02-15T07:31:48;3.97;;;1.60;;
25559;SDS011;13450;49.374;8.584;2024-02-15T07:34:14;4.22;;;1.48;;
25559;SDS011;13450;49.374;8.584;2024-02-15T07:36:40;2.92;;;1.35;;
25559;SDS011;13450;49.374;8.584;2024-02-15T07:39:10;4.63;;;1.95;;
25559;SDS011;13450;49.374;8.584;2024-02-15T07:41:48;4.22;;;1.65;;
25559;SDS011;13450;49.374;8.584;2024-02-15T07:44:14;4.82;;;1.70;;
25559;SDS011;13450;49.374;8.584;2024-02-15T07:46:42;4.40;;;1.60;;
25559;SDS011;13450;49.374;8.584;2024-02-15T07:49:07;4.82;;;1.65;;
25559;SDS011;13450;49.374;8.584;2024-02-15T07:51:36;3.50;;;1.37;;
25559;SDS011;13450;49.374;8.584;2024-02-15T07:54:04;3.63;;;1.30;;
25559;SDS011;13450;49.374;8.584;2024-02-15T07:56:31;3.85;;;1.10;;
25559;SDS011;13450;49.374;8.584;2024-02-15T07:58:56;3.42;;;1.35;;
25559;SDS011;13450;49.374;8.584;2024-02-15T08:01:21;4.38;;;1.40;;
25559;SDS011;13450;49.374;8.584;2024-02-15T08:03:50;4.20;;;1.40;;
25559;SDS011;13450;49.374;8.584;2024-02-15T08:06:17;3.28;;;1.38;;
25559;SDS011;13450;49.374;8.584;2024-02-15T08:08:46;4.63;;;1.50;;
25559;SDS011;13450;49.374;8.584;2024-02-15T08:11:12;4.53;;;1.70;;
25559;SDS011;13450;49.374;8.584;2024-02-15T08:13:44;8.07;;;3.03;;
25559;SDS011;13450;49.374;8.584;2024-02-15T08:16:12;6.43;;;2.70;;
25559;SDS011;13450;49.374;8.584;2024-02-15T08:18:41;5.80;;;2.38;;
25559;SDS011;13450;49.374;8.584;2024-02-15T08:21:06;6.95;;;2.20;;
25559;SDS011;13450;49.374;8.584;2024-02-15T08:23:31;5.45;;;2.10;;
25559;SDS011;13450;49.374;8.584;2024-02-15T08:25:59;4.30;;;1.85;;
25559;SDS011;13450;49.374;8.584;2024-02-15T08:28:24;5.88;;;1.70;;
25559;SDS011;13450;49.374;8.584;2024-02-15T08:30:51;3.53;;;1.48;;
25559;SDS011;13450;49.374;8.584;2024-02-15T08:33:17;4.55;;;1.80;;
25559;SDS011;13450;49.374;8.584;2024-02-15T08:35:44;4.25;;;1.45;;
25559;SDS011;13450;49.374;8.584;2024-02-15T08:38:09;4.47;;;1.60;;
25559;SDS011;13450;49.374;8.584;2024-02-15T08:40:37;4.55;;;1.80;;
25559;SDS011;13450;49.374;8.584;2024-02-15T08:43:02;6.40;;;2.30;;
25559;SDS011;13450;49.374;8.584;2024-02-15T08:45:28;5.90;;;1.90;;
25559;SDS011;13450;49.374;8.584;2024-02-15T08:47:53;6.10;;;1.92;;
25559;SDS011;13450;49.374;8.584;2024-02-15T08:50:18;4.78;;;1.90;;
25559;SDS011;13450;49.374;8.584;2024-02-15T08:52:46;3.17;;;1.55;;
25559;SDS011;13450;49.374;8.584;2024-02-15T08:55:11;4.40;;;1.73;;
25559;SDS011;13450;49.374;8.584;2024-02-15T08:57:40;4.43;;;1.43;;
25559;SDS011;13450;49.374;8.584;2024-02-15T09:00:09;4.30;;;1.50;;
25559;SDS011;13450;49.374;8.584;2024-02-15T09:02:42;2.83;;;1.35;;
25559;SDS011;13450;49.374;8.584;2024-02-15T09:05:07;5.97;;;1.48;;
25559;SDS011;13450;49.374;8.584;2024-02-15T09:07:33;7.78;;;1.77;;
25559;SDS011;13450;49.374;8.584;2024-02-15T09:10:03;4.93;;;1.27;;
25559;SDS011;13450;49.374;8.584;2024-02-15T09:12:29;4.03;;;1.30;;
25559;SDS011;13450;49.374;8.584;2024-02-15T09:14:56;2.92;;;1.10;;
25559;SDS011;13450;49.374;8.584;2024-02-15T09:17:21;4.43;;;1.15;;
25559;SDS011;13450;49.374;8.584;2024-02-15T09:19:48;1.95;;;0.90;;
25559;SDS011;13450;49.374;8.584;2024-02-15T09:22:16;2.70;;;1.17;;
25559;SDS011;13450;49.374;8.584;2024-02-15T09:24:41;3.97;;;1.00;;
25559;SDS011;13450;49.374;8.584;2024-02-15T09:27:07;2.60;;;1.05;;
25559;SDS011;13450;49.374;8.584;2024-02-15T09:29:37;3.60;;;0.77;;
25559;SDS011;13450;49.374;8.584;2024-02-15T09:32:05;1.03;;;0.57;;
25559;SDS011;13450;49.374;8.584;2024-02-15T09:34:31;2.28;;;0.80;;
25559;SDS011;13450;49.374;8.584;2024-02-15T09:36:57;3.00;;;1.00;;
25559;SDS011;13450;49.374;8.584;2024-02-15T09:39:25;3.17;;;0.82;;
25559;SDS011;13450;49.374;8.584;2024-02-15T09:41:53;3.67;;;0.80;;
25559;SDS011;13450;49.374;8.584;2024-02-15T09:44:24;3.00;;;0.80;;
25559;SDS011;13450;49.374;8.584;2024-02-15T09:46:55;8.25;;;1.48;;
25559;SDS011;13450;49.374;8.584;2024-02-15T09:49:28;3.28;;;0.90;;
25559;SDS011;13450;49.374;8.584;2024-02-15T09:51:54;2.63;;;1.00;;
25559;SDS011;13450;49.374;8.584;2024-02-15T09:54:21;2.47;;;0.80;;
25559;SDS011;13450;49.374;8.584;2024-02-15T09:56:50;2.35;;;0.68;;
25559;SDS011;13450;49.374;8.584;2024-02-15T09:59:17;2.60;;;0.82;;
25559;SDS011;13450;49.374;8.584;2024-02-15T10:01:44;1.45;;;0.70;;
25559;SDS011;13450;49.374;8.584;2024-02-15T10:04:12;2.63;;;0.90;;
25559;SDS011;13450;49.374;8.584;2024-02-15T10:06:41;5.35;;;1.10;;
25559;SDS011;13450;49.374;8.584;2024-02-15T10:09:29;2.80;;;0.85;;
25559;SDS011;13450;49.374;8.584;2024-02-15T10:11:56;3.40;;;1.10;;
25559;SDS011;13450;49.374;8.584;2024-02-15T10:14:23;2.92;;;1.00;;
25559;SDS011;13450;49.374;8.584;2024-02-15T10:16:52;4.20;;;1.05;;
25559;SDS011;13450;49.374;8.584;2024-02-15T10:19:22;3.70;;;0.90;;
25559;SDS011;13450;49.374;8.584;2024-02-15T10:21:53;2.88;;;1.05;;
25559;SDS011;13450;49.374;8.584;2024-02-15T10:24:20;2.40;;;0.70;;
25559;SDS011;13450;49.374;8.584;2024-02-15T10:26:48;3.88;;;0.65;;
25559;SDS011;13450;49.374;8.584;2024-02-15T10:29:13;5.82;;;0.90;;
25559;SDS011;13450;49.374;8.584;2024-02-15T10:31:55;1.63;;;0.68;;
25559;SDS011;13450;49.374;8.584;2024-02-15T10:34:21;4.45;;;1.58;;
25559;SDS011;13450;49.374;8.584;2024-02-15T10:36:48;6.40;;;1.70;;
25559;SDS011;13450;49.374;8.584;2024-02-15T10:39:17;6.40;;;1.83;;
25559;SDS011;13450;49.374;8.584;2024-02-15T10:41:45;10.48;;;3.17;;
25559;SDS011;13450;49.374;8.584;2024-02-15T10:44:16;4.93;;;1.75;;
25559;SDS011;13450;49.374;8.584;2024-02-15T10:46:46;3.70;;;1.10;;
25559;SDS011;13450;49.374;8.584;2024-02-15T10:49:16;3.97;;;1.02;;
25559;SDS011;13450;49.374;8.584;2024-02-15T10:51:55;5.95;;;1.92;;
25559;SDS011;13450;49.374;8.584;2024-02-15T10:55:08;3.53;;;1.65;;
25559;SDS011;13450;49.374;8.584;2024-02-15T10:57:12;3.30;;;1.23;;
25559;SDS011;13450;49.374;8.584;2024-02-15T10:59:41;8.93;;;3.88;;
25559;SDS011;13450;49.374;8.584;2024-02-15T11:02:27;2.75;;;1.05;;
25559;SDS011;13450;49.374;8.584;2024-02-15T11:04:54;1.77;;;0.80;;
25559;SDS011;13450;49.374;8.584;2024-02-15T11:07:26;4.50;;;1.50;;
25559;SDS011;13450;49.374;8.584;2024-02-15T11:09:53;2.97;;;1.15;;
25559;SDS011;13450;49.374;8.584;2024-02-15T11:12:21;2.65;;;1.00;;
25559;SDS011;13450;49.374;8.584;2024-02-15T11:14:48;3.03;;;1.02;;
25559;SDS011;13450;49.374;8.584;2024-02-15T11:17:44;2.42;;;1.00;;
25559;SDS011;13450;49.374;8.584;2024-02-15T11:20:02;3.00;;;1.40;;
25559;SDS011;13450;49.374;8.584;2024-02-15T11:22:34;4.07;;;1.20;;
25559;SDS011;13450;49.374;8.584;2024-02-15T11:25:02;3.08;;;0.90;;
25559;SDS011;13450;49.374;8.584;2024-02-15T11:27:37;2.25;;;0.80;;
25559;SDS011;13450;49.374;8.584;2024-02-15T11:30:04;3.47;;;1.20;;
25559;SDS011;13450;49.374;8.584;2024-02-15T11:32:47;4.88;;;1.20;;
25559;SDS011;13450;49.374;8.584;2024-02-15T11:35:20;3.15;;;1.05;;
25559;SDS011;13450;49.374;8.584;2024-02-15T11:37:55;3.75;;;1.70;;
25559;SDS011;13450;49.374;8.584;2024-02-15T11:42:55;5.63;;;1.65;;
25559;SDS011;13450;49.374;8.584;2024-02-15T11:45:24;3.05;;;1.00;;
25559;SDS011;13450;49.374;8.584;2024-02-15T11:47:50;2.63;;;1.08;;
25559;SDS011;13450;49.374;8.584;2024-02-15T11:50:19;3.10;;;0.80;;
25559;SDS011;13450;49.374;8.584;2024-02-15T11:52:45;3.17;;;0.75;;
25559;SDS011;13450;49.374;8.584;2024-02-15T11:55:13;2.10;;;0.82;;
25559;SDS011;13450;49.374;8.584;2024-02-15T11:57:44;1.98;;;0.88;;
25559;SDS011;13450;49.374;8.584;2024-02-15T12:00:36;3.20;;;0.80;;
25559;SDS011;13450;49.374;8.584;2024-02-15T12:03:22;3.65;;;1.08;;
25559;SDS011;13450;49.374;8.584;2024-02-15T12:06:06;3.58;;;0.98;;
25559;SDS011;13450;49.374;8.584;2024-02-15T12:08:52;4.13;;;0.90;;
25559;SDS011;13450;49.374;8.584;2024-02-15T12:11:37;4.07;;;2.03;;
25559;SDS011;13450;49.374;8.584;2024-02-15T12:14:24;3.13;;;0.90;;
25559;SDS011;13450;49.374;8.584;2024-02-15T12:17:09;2.15;;;0.80;;
25559;SDS011;13450;49.374;8.584;2024-02-15T12:19:55;3.13;;;0.93;;
25559;SDS011;13450;49.374;8.584;2024-02-15T12:22:23;2.70;;;0.80;;
25559;SDS011;13450;49.374;8.584;2024-02-15T12:24:57;2.53;;;1.00;;
25559;SDS011;13450;49.374;8.584;2024-02-15T12:27:25;2.55;;;0.70;;
25559;SDS011;13450;49.374;8.584;2024-02-15T12:32:22;4.88;;;1.10;;
25559;SDS011;13450;49.374;8.584;2024-02-15T12:34:51;3.05;;;1.20;;
25559;SDS011;13450;49.374;8.584;2024-02-15T12:39:43;2.70;;;1.00;;
25559;SDS011;13450;49.374;8.584;2024-02-15T12:42:08;2.28;;;0.60;;
25559;SDS011;13450;49.374;8.584;2024-02-15T12:44:34;1.58;;;0.60;;
25559;SDS011;13450;49.374;8.584;2024-02-15T12:47:00;2.97;;;1.20;;
25559;SDS011;13450;49.374;8.584;2024-02-15T12:49:28;1.95;;;0.70;;
25559;SDS011;13450;49.374;8.584;2024-02-15T12:52:32;2.08;;;0.52;;
25559;SDS011;13450;49.374;8.584;2024-02-15T12:55:19;5.90;;;2.03;;
25559;SDS011;13450;49.374;8.584;2024-02-15T12:57:49;2.35;;;0.85;;
25559;SDS011;13450;49.374;8.584;2024-02-15T13:00:23;3.38;;;0.70;;
25559;SDS011;13450;49.374;8.584;2024-02-15T13:02:53;1.60;;;0.60;;
25559;SDS011;13450;49.374;8.584;2024-02-15T13:05:20;4.93;;;2.22;;
25559;SDS011;13450;49.374;8.584;2024-02-15T13:07:50;11.95;;;4.65;;
25559;SDS011;13450;49.374;8.584;2024-02-15T13:10:16;1.70;;;0.93;;
25559;SDS011;13450;49.374;8.584;2024-02-15T13:12:44;2.65;;;0.70;;
25559;SDS011;13450;49.374;8.584;2024-02-15T13:15:12;3.58;;;0.65;;
25559;SDS011;13450;49.374;8.584;2024-02-15T13:17:45;2.65;;;0.70;;
25559;SDS011;13450;49.374;8.584;2024-02-15T13:20:12;8.02;;;2.60;;
25559;SDS011;13450;49.374;8.584;2024-02-15T13:22:39;2.33;;;0.80;;
25559;SDS011;13450;49.374;8.584;2024-02-15T13:25:06;2.53;;;0.90;;
25559;SDS011;13450;49.374;8.584;2024-02-15T13:27:34;2.45;;;0.75;;
25559;SDS011;13450;49.374;8.584;2024-02-15T13:32:28;1.80;;;0.50;;
25559;SDS011;13450;49.374;8.584;2024-02-15T13:34:54;3.88;;;0.63;;
25559;SDS011;13450;49.374;8.584;2024-02-15T13:37:24;2.65;;;0.63;;
25559;SDS011;13450;49.374;8.584;2024-02-15T13:39:53;3.47;;;1.20;;
25559;SDS011;13450;49.374;8.584;2024-02-15T13:42:18;1.23;;;0.60;;
25559;SDS011;13450;49.374;8.584;2024-02-15T13:44:45;3.88;;;1.40;;
25559;SDS011;13450;49.374;8.584;2024-02-15T13:47:12;3.30;;;1.40;;
25559;SDS011;13450;49.374;8.584;2024-02-15T13:49:38;2.90;;;0.70;;
25559;SDS011;13450;49.374;8.584;2024-02-15T13:52:04;3.00;;;1.00;;
25559;SDS011;13450;49.374;8.584;2024-02-15T13:54:31;2.78;;;1.10;;
25559;SDS011;13450;49.374;8.584;2024-02-15T13:56:56;2.17;;;0.60;;
25559;SDS011;13450;49.374;8.584;2024-02-15T13:59:26;1.17;;;0.50;;
25559;SDS011;13450;49.374;8.584;2024-02-15T14:01:51;2.55;;;0.60;;
25559;SDS011;13450;49.374;8.584;2024-02-15T14:04:18;4.22;;;1.17;;
25559;SDS011;13450;49.374;8.584;2024-02-15T14:06:44;3.63;;;1.23;;
25559;SDS011;13450;49.374;8.584;2024-02-15T14:09:10;3.92;;;1.48;;
25559;SDS011;13450;49.374;8.584;2024-02-15T14:11:39;5.03;;;1.55;;
25559;SDS011;13450;49.374;8.584;2024-02-15T14:14:05;5.13;;;1.90;;
25559;SDS011;13450;49.374;8.584;2024-02-15T14:16:32;5.07;;;2.38;;
25559;SDS011;13450;49.374;8.584;2024-02-15T14:18:58;6.57;;;2.33;;
25559;SDS011;13450;49.374;8.584;2024-02-15T14:21:24;3.33;;;1.52;;
25559;SDS011;13450;49.374;8.584;2024-02-15T14:23:50;3.70;;;1.50;;
25559;SDS011;13450;49.374;8.584;2024-02-15T14:26:16;3.10;;;1.10;;
25559;SDS011;13450;49.374;8.584;2024-02-15T14:28:42;1.90;;;0.90;;
25559;SDS011;13450;49.374;8.584;2024-02-15T14:31:10;3.75;;;0.80;;
25559;SDS011;13450;49.374;8.584;2024-02-15T14:33:54;3.33;;;0.80;;
25559;SDS011;13450;49.374;8.584;2024-02-15T14:36:20;2.10;;;0.65;;
25559;SDS011;13450;49.374;8.584;2024-02-15T14:38:45;2.67;;;0.80;;
25559;SDS011;13450;49.374;8.584;2024-02-15T14:41:11;6.18;;;2.00;;
25559;SDS011;13450;49.374;8.584;2024-02-15T14:43:37;6.18;;;2.22;;
25559;SDS011;13450;49.374;8.584;2024-02-15T14:46:03;4.25;;;1.52;;
25559;SDS011;13450;49.374;8.584;2024-02-15T14:48:33;3.67;;;0.90;;
25559;SDS011;13450;49.374;8.584;2024-02-15T14:50:59;4.78;;;1.52;;
25559;SDS011;13450;49.374;8.584;2024-02-15T14:53:25;4.78;;;1.90;;
25559;SDS011;13450;49.374;8.584;2024-02-15T14:55:54;9.25;;;3.45;;
25559;SDS011;13450;49.374;8.584;2024-02-15T14:58:20;8.85;;;2.85;;
25559;SDS011;13450;49.374;8.584;2024-02-15T15:00:47;8.90;;;3.38;;
25559;SDS011;13450;49.374;8.584;2024-02-15T15:03:12;6.05;;;2.65;;
25559;SDS011;13450;49.374;8.584;2024-02-15T15:05:39;8.38;;;3.20;;
25559;SDS011;13450;49.374;8.584;2024-02-15T15:08:26;6.85;;;2.30;;
25559;SDS011;13450;49.374;8.584;2024-02-15T15:11:10;8.23;;;2.75;;
25559;SDS011;13450;49.374;8.584;2024-02-15T15:14:14;8.52;;;2.47;;
25559;SDS011;13450;49.374;8.584;2024-02-15T15:16:39;5.10;;;2.20;;